createdAt,value
2019-03-01T00:01:15.835Z,55.37
2019-03-01T00:02:21.106Z,55.33
2019-03-01T00:03:24.631Z,55.17
2019-03-01T00:04:39.703Z,54.93
2019-03-01T00:05:54.928Z,55.17
2019-03-01T00:07:17.825Z,55.26
2019-03-01T00:08:21.283Z,55.38
2019-03-01T00:09:30.452Z,55.42
2019-03-01T00:10:57.793Z,55.30
2019-03-01T00:12:07.018Z,55.18
2019-03-01T00:13:33.175Z,55.06
2019-03-01T00:14:54.266Z,55.63
2019-03-01T00:16:19.864Z,55.77
2019-03-01T00:17:32.165Z,55.75
2019-03-01T00:18:38.675Z,55.66
2019-03-01T00:20:11.555Z,55.51
2019-03-01T00:21:33.057Z,55.76
2019-03-01T00:23:06.460Z,55.98
2019-03-01T00:24:18.487Z,55.97
2019-03-01T00:25:27.935Z,56.09
2019-03-01T00:26:34.417Z,56.29
2019-03-01T00:27:58.942Z,56.34
2019-03-01T00:29:33.693Z,56.25
2019-03-01T00:30:40.186Z,56.34
2019-03-01T00:31:49.374Z,56.48
2019-03-01T00:32:55.871Z,56.46
2019-03-01T00:34:07.693Z,56.38
2019-03-01T00:35:31.681Z,56.50
2019-03-01T00:36:47.117Z,56.29
2019-03-01T00:38:02.267Z,56.28
2019-03-01T00:39:25.101Z,56.50
2019-03-01T00:40:37.483Z,56.83
2019-03-01T00:41:58.701Z,56.95
2019-03-01T00:43:16.602Z,56.93
2019-03-01T00:44:39.325Z,57.14
2019-03-01T00:45:42.786Z,56.95
2019-03-01T00:46:46.302Z,56.39
2019-03-01T00:47:49.885Z,56.56
2019-03-01T00:48:53.388Z,56.50
2019-03-01T00:49:56.838Z,56.31
2019-03-01T00:51:00.398Z,55.83
2019-03-01T00:52:04.147Z,55.61
2019-03-01T00:53:07.656Z,55.66
2019-03-01T00:54:11.110Z,55.85
2019-03-01T00:55:14.685Z,55.81
2019-03-01T00:56:18.209Z,55.64
2019-03-01T00:57:21.723Z,55.27
2019-03-01T00:58:25.150Z,55.21
2019-03-01T00:59:28.653Z,55.04
2019-03-01T01:00:35.133Z,54.83
2019-03-01T01:01:38.584Z,55.07
2019-03-01T01:02:42.030Z,55.18
2019-03-01T01:03:45.495Z,55.15
2019-03-01T01:04:48.992Z,55.25
2019-03-01T01:05:52.494Z,55.41
2019-03-01T01:06:56.027Z,55.37
2019-03-01T01:07:59.542Z,55.48
2019-03-01T01:09:03.040Z,55.84
2019-03-01T01:10:06.616Z,55.73
2019-03-01T01:11:10.115Z,55.86
2019-03-01T01:12:13.642Z,55.99
2019-03-01T01:13:17.105Z,55.72
2019-03-01T01:14:20.535Z,55.56
2019-03-01T01:15:24.112Z,55.70
2019-03-01T01:16:27.616Z,56.47
2019-03-01T01:17:31.066Z,56.53
2019-03-01T01:18:34.506Z,56.41
2019-03-01T01:19:38.012Z,56.39
2019-03-01T01:20:41.459Z,56.58
2019-03-01T01:21:44.967Z,56.45
2019-03-01T01:22:48.419Z,56.36
2019-03-01T01:23:51.872Z,56.46
2019-03-01T01:24:55.299Z,56.38
2019-03-01T01:25:58.805Z,56.39
2019-03-01T01:27:02.234Z,56.53
2019-03-01T01:28:05.759Z,56.43
2019-03-01T01:29:09.296Z,56.37
2019-03-01T01:30:14.434Z,56.28
2019-03-01T01:31:17.965Z,56.40
2019-03-01T01:32:21.414Z,56.49
2019-03-01T01:33:24.859Z,57.02
2019-03-01T01:34:28.372Z,57.03
2019-03-01T01:35:31.958Z,57.31
2019-03-01T01:36:35.445Z,57.24
2019-03-01T01:37:38.902Z,57.20
2019-03-01T01:38:42.424Z,56.97
2019-03-01T01:39:45.879Z,56.90
2019-03-01T01:40:49.474Z,57.37
2019-03-01T01:41:52.915Z,57.50
2019-03-01T01:42:56.339Z,57.34
2019-03-01T01:43:59.793Z,57.16
2019-03-01T01:45:04.007Z,57.09
2019-03-01T01:46:07.514Z,57.03
2019-03-01T01:47:10.957Z,57.27
2019-03-01T01:48:14.460Z,57.34
2019-03-01T01:49:19.013Z,58.14
2019-03-01T01:50:22.406Z,58.04
2019-03-01T01:51:25.906Z,57.68
2019-03-01T01:52:29.402Z,57.46
2019-03-01T01:53:32.909Z,57.29
2019-03-01T01:54:36.382Z,57.40
2019-03-01T01:55:39.903Z,57.46
2019-03-01T01:56:43.397Z,57.54
2019-03-01T01:57:46.821Z,57.57
2019-03-01T01:58:50.255Z,57.59
2019-03-01T01:59:53.714Z,57.56
2019-03-01T02:00:57.259Z,57.78
2019-03-01T02:02:00.675Z,57.79
2019-03-01T02:03:04.238Z,58.04
2019-03-01T02:04:07.741Z,58.07
2019-03-01T02:05:11.436Z,57.98
2019-03-01T02:06:14.927Z,57.90
2019-03-01T02:07:18.372Z,57.73
2019-03-01T02:08:21.938Z,57.97
2019-03-01T02:09:26.483Z,57.94
2019-03-01T02:10:30.165Z,57.88
2019-03-01T02:11:33.614Z,57.77
2019-03-01T02:12:37.168Z,57.91
2019-03-01T02:13:40.680Z,58.23
2019-03-01T02:14:44.112Z,58.53
2019-03-01T02:15:47.639Z,58.49
2019-03-01T02:16:51.073Z,58.58
2019-03-01T02:17:54.511Z,58.43
2019-03-01T02:18:58.175Z,58.36
2019-03-01T02:20:01.626Z,58.29
2019-03-01T02:21:05.212Z,58.24
2019-03-01T02:22:08.660Z,58.36
2019-03-01T02:23:12.098Z,58.27
2019-03-01T02:24:15.680Z,58.06
2019-03-01T02:25:19.099Z,58.03
2019-03-01T02:26:22.560Z,58.13
2019-03-01T02:27:27.715Z,58.25
2019-03-01T02:28:31.218Z,58.54
2019-03-01T02:29:34.662Z,58.51
2019-03-01T02:30:41.198Z,58.86
2019-03-01T02:31:48.320Z,58.62
2019-03-01T02:32:51.863Z,58.39
2019-03-01T02:33:55.286Z,58.21
2019-03-01T02:34:58.710Z,58.20
2019-03-01T02:36:02.157Z,58.13
2019-03-01T02:37:05.624Z,57.96
2019-03-01T02:38:09.134Z,57.96
2019-03-01T02:39:12.582Z,58.04
2019-03-01T02:40:16.656Z,57.94
2019-03-01T02:41:20.122Z,57.80
2019-03-01T02:42:23.554Z,57.82
2019-03-01T02:43:27.008Z,57.86
2019-03-01T02:44:30.496Z,57.76
2019-03-01T02:45:33.953Z,57.69
2019-03-01T02:46:37.455Z,58.10
2019-03-01T02:47:40.946Z,58.21
2019-03-01T02:48:44.432Z,58.60
2019-03-01T02:49:47.859Z,58.53
2019-03-01T02:50:51.282Z,58.62
2019-03-01T02:51:54.711Z,58.50
2019-03-01T02:52:58.241Z,58.72
2019-03-01T02:54:01.689Z,58.56
2019-03-01T02:55:07.694Z,58.38
2019-03-01T02:56:11.486Z,58.33
2019-03-01T02:57:15.070Z,58.19
2019-03-01T02:58:18.584Z,57.96
2019-03-01T02:59:22.009Z,57.80
2019-03-01T03:00:29.965Z,57.76
2019-03-01T03:01:33.381Z,57.74
2019-03-01T03:02:36.805Z,57.78
2019-03-01T03:03:40.262Z,57.90
2019-03-01T03:04:43.756Z,57.87
2019-03-01T03:05:48.816Z,58.07
2019-03-01T03:06:53.966Z,58.15
2019-03-01T03:07:59.039Z,58.05
2019-03-01T03:09:02.467Z,57.93
2019-03-01T03:10:07.644Z,57.81
2019-03-01T03:11:11.056Z,57.64
2019-03-01T03:12:14.559Z,57.42
2019-03-01T03:13:17.997Z,57.39
2019-03-01T03:14:21.519Z,57.57
2019-03-01T03:15:32.313Z,57.54
2019-03-01T03:16:35.746Z,57.66
2019-03-01T03:17:39.316Z,57.76
2019-03-01T03:18:42.764Z,57.63
2019-03-01T03:19:46.213Z,57.74
2019-03-01T03:20:49.655Z,57.96
2019-03-01T03:21:53.082Z,57.83
2019-03-01T03:22:56.504Z,57.71
2019-03-01T03:23:59.936Z,57.56
2019-03-01T03:25:03.755Z,57.72
2019-03-01T03:26:07.316Z,58.12
2019-03-01T03:27:10.764Z,58.54
2019-03-01T03:28:14.265Z,58.86
2019-03-01T03:29:17.764Z,59.01
2019-03-01T03:30:21.409Z,59.30
2019-03-01T03:31:24.885Z,59.75
2019-03-01T03:32:28.321Z,60.00
2019-03-01T03:33:31.772Z,59.83
2019-03-01T03:34:35.191Z,59.78
2019-03-01T03:35:38.742Z,59.57
2019-03-01T03:36:42.222Z,59.36
2019-03-01T03:37:45.729Z,59.86
2019-03-01T03:38:49.166Z,59.53
2019-03-01T03:39:52.589Z,59.57
2019-03-01T03:40:56.034Z,59.50
2019-03-01T03:41:59.514Z,59.52
2019-03-01T03:43:03.023Z,59.83
2019-03-01T03:44:06.508Z,60.02
2019-03-01T03:45:12.785Z,60.45
2019-03-01T03:46:16.232Z,60.22
2019-03-01T03:47:19.649Z,59.80
2019-03-01T03:48:23.092Z,60.32
2019-03-01T03:49:26.514Z,60.47
2019-03-01T03:50:29.929Z,60.89
2019-03-01T03:51:33.452Z,61.18
2019-03-01T03:52:36.886Z,61.21
2019-03-01T03:53:40.317Z,61.19
2019-03-01T03:54:43.747Z,61.46
2019-03-01T03:55:47.243Z,61.56
2019-03-01T03:56:50.790Z,61.58
2019-03-01T03:57:54.303Z,61.89
2019-03-01T03:58:57.736Z,61.87
2019-03-01T04:00:01.238Z,62.16
2019-03-01T04:01:04.796Z,61.97
2019-03-01T04:02:08.338Z,61.95
2019-03-01T04:03:11.824Z,61.95
2019-03-01T04:04:15.252Z,61.99
2019-03-01T04:05:18.838Z,62.13
2019-03-01T04:06:22.396Z,62.03
2019-03-01T04:07:25.850Z,62.34
2019-03-01T04:08:29.426Z,62.49
2019-03-01T04:09:32.854Z,62.68
2019-03-01T04:10:36.275Z,63.75
2019-03-01T04:11:39.767Z,64.15
2019-03-01T04:12:43.225Z,64.24
2019-03-01T04:13:46.742Z,64.01
2019-03-01T04:14:50.157Z,63.90
2019-03-01T04:15:53.593Z,63.88
2019-03-01T04:16:57.022Z,64.08
2019-03-01T04:18:00.537Z,63.53
2019-03-01T04:19:03.988Z,63.61
2019-03-01T04:20:16.357Z,63.99
2019-03-01T04:21:19.777Z,63.72
2019-03-01T04:22:23.194Z,63.63
2019-03-01T04:23:26.647Z,63.35
2019-03-01T04:24:30.141Z,63.31
2019-03-01T04:25:33.638Z,63.58
2019-03-01T04:26:37.067Z,63.59
2019-03-01T04:27:40.493Z,63.63
2019-03-01T04:28:43.942Z,64.51
2019-03-01T04:29:47.395Z,65.02
2019-03-01T04:30:50.815Z,64.96
2019-03-01T04:31:54.249Z,65.06
2019-03-01T04:32:57.757Z,65.58
2019-03-01T04:34:01.204Z,66.14
2019-03-01T04:35:05.384Z,66.00
2019-03-01T04:36:08.823Z,65.86
2019-03-01T04:37:12.239Z,65.70
2019-03-01T04:38:15.667Z,65.78
2019-03-01T04:39:19.115Z,66.03
2019-03-01T04:40:22.544Z,65.85
2019-03-01T04:41:25.973Z,65.49
2019-03-01T04:42:29.467Z,65.35
2019-03-01T04:43:32.891Z,65.52
2019-03-01T04:44:36.326Z,65.58
2019-03-01T04:45:39.782Z,65.51
2019-03-01T04:46:43.218Z,65.60
2019-03-01T04:47:46.717Z,65.50
2019-03-01T04:48:58.209Z,65.64
2019-03-01T04:50:01.674Z,65.49
2019-03-01T04:51:05.097Z,65.40
2019-03-01T04:52:20.328Z,65.23
2019-03-01T04:53:23.767Z,65.06
2019-03-01T04:54:27.173Z,65.24
2019-03-01T04:55:30.626Z,65.18
2019-03-01T04:56:34.053Z,64.79
2019-03-01T04:57:37.477Z,64.80
2019-03-01T04:58:40.903Z,64.88
2019-03-01T04:59:44.323Z,65.11
2019-03-01T05:00:47.830Z,64.91
2019-03-01T05:01:51.262Z,64.86
2019-03-01T05:02:54.827Z,64.78
2019-03-01T05:03:58.252Z,64.62
2019-03-01T05:05:01.749Z,64.39
2019-03-01T05:06:05.268Z,64.34
2019-03-01T05:07:08.762Z,64.30
2019-03-01T05:08:12.254Z,63.84
2019-03-01T05:09:15.690Z,63.65
2019-03-01T05:10:19.248Z,63.62
2019-03-01T05:11:22.772Z,63.54
2019-03-01T05:12:26.270Z,63.72
2019-03-01T05:13:29.697Z,63.48
2019-03-01T05:14:33.115Z,63.37
2019-03-01T05:15:36.534Z,63.31
2019-03-01T05:16:39.986Z,63.14
2019-03-01T05:17:43.679Z,63.13
2019-03-01T05:18:47.102Z,63.13
2019-03-01T05:19:50.580Z,63.01
2019-03-01T05:20:54.010Z,63.31
2019-03-01T05:21:57.456Z,63.18
2019-03-01T05:23:00.954Z,63.27
2019-03-01T05:24:04.525Z,63.24
2019-03-01T05:25:09.599Z,63.35
2019-03-01T05:26:13.040Z,63.28
2019-03-01T05:27:16.496Z,63.21
2019-03-01T05:28:19.932Z,63.30
2019-03-01T05:29:23.357Z,63.19
2019-03-01T05:30:26.861Z,63.21
2019-03-01T05:31:30.286Z,62.94
2019-03-01T05:32:33.736Z,63.44
2019-03-01T05:33:37.188Z,63.27
2019-03-01T05:34:40.612Z,63.22
2019-03-01T05:35:44.031Z,63.37
2019-03-01T05:36:47.530Z,63.42
2019-03-01T05:37:51.046Z,63.36
2019-03-01T05:38:54.513Z,63.25
2019-03-01T05:39:57.907Z,64.30
2019-03-01T05:41:01.323Z,64.41
2019-03-01T05:42:04.814Z,64.79
2019-03-01T05:43:08.251Z,64.83
2019-03-01T05:44:11.702Z,64.93
2019-03-01T05:45:28.076Z,64.76
2019-03-01T05:46:31.497Z,65.54
2019-03-01T05:47:34.926Z,66.50
2019-03-01T05:48:38.362Z,67.40
2019-03-01T05:49:41.792Z,68.55
2019-03-01T05:50:45.219Z,69.27
2019-03-01T05:51:48.643Z,70.37
2019-03-01T05:52:52.149Z,70.37
2019-03-01T05:53:55.729Z,70.50
2019-03-01T05:54:59.159Z,70.83
2019-03-01T05:56:02.586Z,70.54
2019-03-01T05:57:06.144Z,70.54
2019-03-01T05:58:29.381Z,70.69
2019-03-01T05:59:32.835Z,70.74
2019-03-01T06:00:36.264Z,70.95
2019-03-01T06:01:45.480Z,70.98
2019-03-01T06:02:54.881Z,71.06
2019-03-01T06:04:04.475Z,71.06
2019-03-01T06:05:11.035Z,71.11
2019-03-01T06:06:36.774Z,71.55
2019-03-01T06:08:00.940Z,71.89
2019-03-01T06:09:13.015Z,71.89
2019-03-01T06:10:31.403Z,72.75
2019-03-01T06:11:43.575Z,72.44
2019-03-01T06:13:08.008Z,72.03
2019-03-01T06:14:20.345Z,72.11
2019-03-01T06:15:35.821Z,71.55
2019-03-01T06:16:45.255Z,71.55
2019-03-01T06:17:54.680Z,71.46
2019-03-01T06:19:23.615Z,71.46
2019-03-01T06:20:41.701Z,71.32
2019-03-01T06:21:56.475Z,71.86
2019-03-01T06:23:22.038Z,71.86
2019-03-01T06:24:28.516Z,72.06
2019-03-01T06:25:37.809Z,72.06
2019-03-01T06:26:46.838Z,72.26
2019-03-01T06:27:53.335Z,72.61
2019-03-01T06:29:19.250Z,72.68
2019-03-01T06:30:51.596Z,72.39
2019-03-01T06:31:53.087Z,72.15
2019-03-01T06:33:08.163Z,72.26
2019-03-01T06:34:26.432Z,72.31
2019-03-01T06:35:32.904Z,72.00
2019-03-01T06:36:51.054Z,71.81
2019-03-01T06:38:17.175Z,71.99
2019-03-01T06:39:33.771Z,73.41
2019-03-01T06:41:15.738Z,72.32
2019-03-01T06:42:23.865Z,72.54
2019-03-01T06:43:33.159Z,72.54
2019-03-01T06:44:42.405Z,72.17
2019-03-01T06:46:12.877Z,72.12
2019-03-01T06:47:24.917Z,72.05
2019-03-01T06:48:29.994Z,71.82
2019-03-01T06:49:53.118Z,71.82
2019-03-01T06:50:58.240Z,71.56
2019-03-01T06:52:01.751Z,71.64
2019-03-01T06:53:05.250Z,71.79
2019-03-01T06:54:08.680Z,71.85
2019-03-01T06:55:29.992Z,71.94
2019-03-01T06:56:33.527Z,71.71
2019-03-01T06:57:36.939Z,72.09
2019-03-01T06:58:40.524Z,72.33
2019-03-01T06:59:43.987Z,72.20
2019-03-01T07:00:50.421Z,71.97
2019-03-01T07:01:54.285Z,71.68
2019-03-01T07:02:59.019Z,71.65
2019-03-01T07:04:04.494Z,71.78
2019-03-01T07:05:08.092Z,71.59
2019-03-01T07:06:11.623Z,71.11
2019-03-01T07:07:15.130Z,71.74
2019-03-01T07:08:19.221Z,71.84
2019-03-01T07:09:22.941Z,71.93
2019-03-01T07:10:26.514Z,71.13
2019-03-01T07:11:31.457Z,71.44
2019-03-01T07:12:35.118Z,71.67
2019-03-01T07:13:38.689Z,71.52
2019-03-01T07:14:42.318Z,71.49
2019-03-01T07:15:46.025Z,71.29
2019-03-01T07:16:49.423Z,71.93
2019-03-01T07:17:52.859Z,72.88
2019-03-01T07:18:56.447Z,73.32
2019-03-01T07:19:59.921Z,73.31
2019-03-01T07:21:03.836Z,73.10
2019-03-01T07:22:09.136Z,73.10
2019-03-01T07:23:12.562Z,72.53
2019-03-01T07:24:16.133Z,72.53
2019-03-01T07:25:19.674Z,72.42
2019-03-01T07:26:23.117Z,72.20
2019-03-01T07:27:26.533Z,72.55
2019-03-01T07:28:30.043Z,72.79
2019-03-01T07:29:33.572Z,72.94
2019-03-01T07:30:37.153Z,72.82
2019-03-01T07:31:40.573Z,72.82
2019-03-01T07:32:44.015Z,72.98
2019-03-01T07:33:47.432Z,72.98
2019-03-01T07:34:50.885Z,73.12
2019-03-01T07:35:54.418Z,72.97
2019-03-01T07:36:57.850Z,73.40
2019-03-01T07:38:01.432Z,73.71
2019-03-01T07:39:07.834Z,73.84
2019-03-01T07:40:12.539Z,73.65
2019-03-01T07:41:15.982Z,73.70
2019-03-01T07:42:19.412Z,73.86
2019-03-01T07:43:22.834Z,74.46
2019-03-01T07:44:26.285Z,74.46
2019-03-01T07:45:29.728Z,74.78
2019-03-01T07:46:33.152Z,75.20
2019-03-01T07:47:36.583Z,75.14
2019-03-01T07:48:40.005Z,74.78
2019-03-01T07:49:43.442Z,75.12
2019-03-01T07:50:46.891Z,75.68
2019-03-01T07:51:50.341Z,75.34
2019-03-01T07:52:53.764Z,75.63
2019-03-01T07:53:57.186Z,75.64
2019-03-01T07:55:00.748Z,75.80
2019-03-01T07:56:05.292Z,75.85
2019-03-01T07:57:11.513Z,75.70
2019-03-01T07:58:14.159Z,75.78
2019-03-01T07:59:17.690Z,75.90
2019-03-01T08:00:21.210Z,75.90
2019-03-01T08:01:25.715Z,75.73
2019-03-01T08:02:30.005Z,75.95
2019-03-01T08:03:33.414Z,76.42
2019-03-01T08:04:36.844Z,77.12
2019-03-01T08:05:40.557Z,77.05
2019-03-01T08:06:45.657Z,76.98
2019-03-01T08:07:56.071Z,76.88
2019-03-01T08:08:54.367Z,76.85
2019-03-01T08:09:57.809Z,76.66
2019-03-01T08:11:01.231Z,76.99
2019-03-01T08:12:07.428Z,77.29
2019-03-01T08:13:09.970Z,76.87
2019-03-01T08:14:13.462Z,77.23
2019-03-01T08:15:17.829Z,77.27
2019-03-01T08:16:21.580Z,77.43
2019-03-01T08:17:27.735Z,77.22
2019-03-01T08:18:30.187Z,77.22
2019-03-01T08:19:33.612Z,76.89
2019-03-01T08:20:37.178Z,76.85
2019-03-01T08:21:42.818Z,76.77
2019-03-01T08:22:48.931Z,77.31
2019-03-01T08:23:51.270Z,77.32
2019-03-01T08:24:54.688Z,77.08
2019-03-01T08:25:58.754Z,76.69
2019-03-01T08:27:06.490Z,76.63
2019-03-01T08:28:08.461Z,76.50
2019-03-01T08:29:11.910Z,76.33
2019-03-01T08:30:17.367Z,76.54
2019-03-01T08:31:21.210Z,76.28
2019-03-01T08:32:27.385Z,76.34
2019-03-01T08:33:30.860Z,76.34
2019-03-01T08:34:35.274Z,76.25
2019-03-01T08:35:38.817Z,75.93
2019-03-01T08:36:43.487Z,75.73
2019-03-01T08:37:49.755Z,76.03
2019-03-01T08:38:52.430Z,76.03
2019-03-01T08:39:55.949Z,75.76
2019-03-01T08:40:59.446Z,76.11
2019-03-01T08:42:02.990Z,76.52
2019-03-01T08:43:11.691Z,76.64
2019-03-01T08:44:11.626Z,76.96
2019-03-01T08:45:20.066Z,76.80
2019-03-01T08:46:23.562Z,76.50
2019-03-01T08:47:27.017Z,76.57
2019-03-01T08:48:33.347Z,77.08
2019-03-01T08:49:35.625Z,77.32
2019-03-01T08:50:39.051Z,76.49
2019-03-01T08:51:42.535Z,76.80
2019-03-01T08:52:46.632Z,77.44
2019-03-01T08:53:50.996Z,77.46
2019-03-01T08:54:54.550Z,77.55
2019-03-01T08:55:57.973Z,77.50
2019-03-01T08:57:01.412Z,77.42
2019-03-01T08:58:06.982Z,77.28
2019-03-01T08:59:10.119Z,77.22
2019-03-01T09:00:16.511Z,77.14
2019-03-01T09:01:22.682Z,77.48
2019-03-01T09:02:26.339Z,77.93
2019-03-01T09:03:35.479Z,78.12
2019-03-01T09:04:39.012Z,77.96
2019-03-01T09:05:42.422Z,77.98
2019-03-01T09:06:45.848Z,78.18
2019-03-01T09:07:49.282Z,78.05
2019-03-01T09:08:52.777Z,78.55
2019-03-01T09:09:57.204Z,78.50
2019-03-01T09:11:01.462Z,78.12
2019-03-01T09:12:04.962Z,78.48
2019-03-01T09:13:08.395Z,78.27
2019-03-01T09:14:11.893Z,78.73
2019-03-01T09:15:16.069Z,79.10
2019-03-01T09:16:19.560Z,79.78
2019-03-01T09:17:23.006Z,79.62
2019-03-01T09:18:26.494Z,79.32
2019-03-01T09:19:29.918Z,79.42
2019-03-01T09:20:38.506Z,79.29
2019-03-01T09:21:39.532Z,79.18
2019-03-01T09:22:43.808Z,78.84
2019-03-01T09:23:47.998Z,78.72
2019-03-01T09:24:52.443Z,78.84
2019-03-01T09:25:56.013Z,78.57
2019-03-01T09:26:59.469Z,78.44
2019-03-01T09:28:02.967Z,78.36
2019-03-01T09:29:06.461Z,78.06
2019-03-01T09:30:18.371Z,78.21
2019-03-01T09:31:21.966Z,77.96
2019-03-01T09:32:25.409Z,77.82
2019-03-01T09:33:28.968Z,78.02
2019-03-01T09:34:33.062Z,78.04
2019-03-01T09:35:39.794Z,77.98
2019-03-01T09:36:45.143Z,77.95
2019-03-01T09:37:48.565Z,78.20
2019-03-01T09:38:51.990Z,78.17
2019-03-01T09:40:05.059Z,78.17
2019-03-01T09:41:01.299Z,78.56
2019-03-01T09:42:06.450Z,78.69
2019-03-01T09:43:09.967Z,78.64
2019-03-01T09:44:13.389Z,79.03
2019-03-01T09:45:16.855Z,78.75
2019-03-01T09:46:20.835Z,78.83
2019-03-01T09:47:25.528Z,78.34
2019-03-01T09:48:29.115Z,78.24
2019-03-01T09:49:35.488Z,78.08
2019-03-01T09:50:38.993Z,77.71
2019-03-01T09:51:43.691Z,77.35
2019-03-01T09:52:47.586Z,77.67
2019-03-01T09:53:51.055Z,77.45
2019-03-01T09:54:54.481Z,77.27
2019-03-01T09:55:59.971Z,77.30
2019-03-01T09:57:03.117Z,77.37
2019-03-01T09:58:08.394Z,77.36
2019-03-01T09:59:11.750Z,77.29
2019-03-01T10:00:18.212Z,77.58
2019-03-01T10:01:22.215Z,77.90
2019-03-01T10:02:25.628Z,77.88
2019-03-01T10:03:29.080Z,77.56
2019-03-01T10:04:32.537Z,77.50
2019-03-01T10:05:36.057Z,77.50
2019-03-01T10:06:39.481Z,77.93
2019-03-01T10:07:42.985Z,77.93
2019-03-01T10:08:46.423Z,78.49
2019-03-01T10:09:50.047Z,78.11
2019-03-01T10:10:53.533Z,78.28
2019-03-01T10:11:57.035Z,78.28
2019-03-01T10:13:00.512Z,78.30
2019-03-01T10:14:04.020Z,78.45
2019-03-01T10:15:10.187Z,78.07
2019-03-01T10:16:13.687Z,77.73
2019-03-01T10:17:17.121Z,77.32
2019-03-01T10:18:20.610Z,77.71
2019-03-01T10:19:24.047Z,78.10
2019-03-01T10:20:27.620Z,78.15
2019-03-01T10:21:31.154Z,78.21
2019-03-01T10:22:34.587Z,78.22
2019-03-01T10:23:38.081Z,78.37
2019-03-01T10:24:41.592Z,78.08
2019-03-01T10:25:45.041Z,77.85
2019-03-01T10:26:48.548Z,77.94
2019-03-01T10:27:51.994Z,77.61
2019-03-01T10:28:55.431Z,77.86
2019-03-01T10:29:58.949Z,78.13
2019-03-01T10:31:02.408Z,78.71
2019-03-01T10:32:05.895Z,78.25
2019-03-01T10:33:09.317Z,78.16
2019-03-01T10:34:12.755Z,78.08
2019-03-01T10:35:16.730Z,77.93
2019-03-01T10:36:20.169Z,78.12
2019-03-01T10:37:23.598Z,78.25
2019-03-01T10:38:27.024Z,78.09
2019-03-01T10:39:32.456Z,77.39
2019-03-01T10:40:35.691Z,77.79
2019-03-01T10:41:39.139Z,77.92
2019-03-01T10:42:42.634Z,77.30
2019-03-01T10:43:46.062Z,77.43
2019-03-01T10:44:49.553Z,77.94
2019-03-01T10:45:53.064Z,77.97
2019-03-01T10:46:56.491Z,77.62
2019-03-01T10:48:00.056Z,77.79
2019-03-01T10:49:03.540Z,77.75
2019-03-01T10:50:09.799Z,77.68
2019-03-01T10:51:13.240Z,77.34
2019-03-01T10:52:16.741Z,76.99
2019-03-01T10:53:20.164Z,76.99
2019-03-01T10:54:23.744Z,77.41
2019-03-01T10:55:27.168Z,77.03
2019-03-01T10:56:30.623Z,77.22
2019-03-01T10:57:34.046Z,77.62
2019-03-01T10:58:37.478Z,77.56
2019-03-01T10:59:40.896Z,77.19
2019-03-01T11:00:44.529Z,77.37
2019-03-01T11:01:48.037Z,77.70
2019-03-01T11:02:51.709Z,77.24
2019-03-01T11:03:55.201Z,77.32
2019-03-01T11:04:58.623Z,77.62
2019-03-01T11:06:02.047Z,77.38
2019-03-01T11:07:05.560Z,77.22
2019-03-01T11:08:09.004Z,77.00
2019-03-01T11:09:12.516Z,76.52
2019-03-01T11:10:21.350Z,76.66
2019-03-01T11:11:24.845Z,76.60
2019-03-01T11:12:28.325Z,76.70
2019-03-01T11:13:31.753Z,76.55
2019-03-01T11:14:35.179Z,76.45
2019-03-01T11:15:38.737Z,76.03
2019-03-01T11:16:42.233Z,76.22
2019-03-01T11:17:45.810Z,76.34
2019-03-01T11:18:49.436Z,76.01
2019-03-01T11:19:53.406Z,76.15
2019-03-01T11:20:56.935Z,76.36
2019-03-01T11:22:00.448Z,77.19
2019-03-01T11:23:03.963Z,77.19
2019-03-01T11:24:07.421Z,76.89
2019-03-01T11:25:19.493Z,76.38
2019-03-01T11:26:22.947Z,76.53
2019-03-01T11:27:26.391Z,76.35
2019-03-01T11:28:29.918Z,75.96
2019-03-01T11:29:33.347Z,76.26
2019-03-01T11:30:37.614Z,76.53
2019-03-01T11:31:41.099Z,76.41
2019-03-01T11:32:44.668Z,76.93
2019-03-01T11:33:48.111Z,77.41
2019-03-01T11:34:51.538Z,76.96
2019-03-01T11:35:55.042Z,77.04
2019-03-01T11:36:58.462Z,76.62
2019-03-01T11:38:01.890Z,77.12
2019-03-01T11:39:06.060Z,77.07
2019-03-01T11:40:15.352Z,77.28
2019-03-01T11:41:18.786Z,77.27
2019-03-01T11:42:22.217Z,77.10
2019-03-01T11:43:25.635Z,76.63
2019-03-01T11:44:29.084Z,76.80
2019-03-01T11:45:32.743Z,76.84
2019-03-01T11:46:36.161Z,76.65
2019-03-01T11:47:39.752Z,76.56
2019-03-01T11:48:43.198Z,76.45
2019-03-01T11:49:46.686Z,76.30
2019-03-01T11:50:50.089Z,76.49
2019-03-01T11:51:53.788Z,76.98
2019-03-01T11:52:57.300Z,77.54
2019-03-01T11:54:00.744Z,77.22
2019-03-01T11:55:05.904Z,77.18
2019-03-01T11:56:09.396Z,77.43
2019-03-01T11:57:12.814Z,77.23
2019-03-01T11:58:16.312Z,76.58
2019-03-01T11:59:19.825Z,76.03
2019-03-01T12:00:24.679Z,76.65
2019-03-01T12:01:28.161Z,76.70
2019-03-01T12:02:31.757Z,77.13
2019-03-01T12:03:35.259Z,76.84
2019-03-01T12:04:38.734Z,76.83
2019-03-01T12:05:42.165Z,76.57
2019-03-01T12:06:45.668Z,76.09
2019-03-01T12:07:49.265Z,75.80
2019-03-01T12:08:52.702Z,75.59
2019-03-01T12:09:56.137Z,75.82
2019-03-01T12:10:59.654Z,74.31
2019-03-01T12:12:03.220Z,74.29
2019-03-01T12:13:06.907Z,73.72
2019-03-01T12:14:10.342Z,71.53
2019-03-01T12:15:14.194Z,71.53
2019-03-01T12:16:17.792Z,72.49
2019-03-01T12:17:21.216Z,72.49
2019-03-01T12:18:24.719Z,71.26
2019-03-01T12:19:28.151Z,71.69
2019-03-01T12:20:32.531Z,71.69
2019-03-01T12:21:36.056Z,72.34
2019-03-01T12:22:39.451Z,71.90
2019-03-01T12:23:42.882Z,72.54
2019-03-01T12:24:46.313Z,71.56
2019-03-01T12:25:49.766Z,71.56
2019-03-01T12:26:53.179Z,72.07
2019-03-01T12:27:56.608Z,72.15
2019-03-01T12:29:00.077Z,72.21
2019-03-01T12:30:03.685Z,71.54
2019-03-01T12:31:07.187Z,72.43
2019-03-01T12:32:10.620Z,72.91
2019-03-01T12:33:14.040Z,73.46
2019-03-01T12:34:17.484Z,73.92
2019-03-01T12:35:20.994Z,73.60
2019-03-01T12:36:24.624Z,74.27
2019-03-01T12:37:28.151Z,74.37
2019-03-01T12:38:31.610Z,74.75
2019-03-01T12:39:35.028Z,74.53
2019-03-01T12:40:38.477Z,73.54
2019-03-01T12:41:41.920Z,74.27
2019-03-01T12:42:45.350Z,74.37
2019-03-01T12:43:48.790Z,74.58
2019-03-01T12:44:52.390Z,74.60
2019-03-01T12:45:55.957Z,74.41
2019-03-01T12:46:59.408Z,74.28
2019-03-01T12:48:02.839Z,74.86
2019-03-01T12:49:06.267Z,75.01
2019-03-01T12:50:11.936Z,74.69
2019-03-01T12:51:15.348Z,74.48
2019-03-01T12:52:18.845Z,74.38
2019-03-01T12:53:22.700Z,74.14
2019-03-01T12:54:26.388Z,74.64
2019-03-01T12:55:30.696Z,74.50
2019-03-01T12:56:37.200Z,74.31
2019-03-01T12:57:40.642Z,74.53
2019-03-01T12:58:44.274Z,74.58
2019-03-01T12:59:47.966Z,74.77
2019-03-01T13:00:51.430Z,74.52
2019-03-01T13:01:54.859Z,74.37
2019-03-01T13:02:58.402Z,73.98
2019-03-01T13:04:01.843Z,73.66
2019-03-01T13:05:08.104Z,73.49
2019-03-01T13:06:11.531Z,73.87
2019-03-01T13:07:14.953Z,73.90
2019-03-01T13:08:18.424Z,73.87
2019-03-01T13:09:23.488Z,73.63
2019-03-01T13:10:36.774Z,73.63
2019-03-01T13:11:39.766Z,73.02
2019-03-01T13:12:43.194Z,73.44
2019-03-01T13:13:46.646Z,73.28
2019-03-01T13:14:50.093Z,73.17
2019-03-01T13:15:53.512Z,72.81
2019-03-01T13:16:58.592Z,72.79
2019-03-01T13:18:03.420Z,72.33
2019-03-01T13:19:07.124Z,72.75
2019-03-01T13:20:13.125Z,73.05
2019-03-01T13:21:16.623Z,72.88
2019-03-01T13:22:20.167Z,72.43
2019-03-01T13:23:23.650Z,72.46
2019-03-01T13:24:27.173Z,71.89
2019-03-01T13:25:30.685Z,72.13
2019-03-01T13:26:34.131Z,72.09
2019-03-01T13:27:37.557Z,72.06
2019-03-01T13:28:43.902Z,72.20
2019-03-01T13:29:46.142Z,72.20
2019-03-01T13:30:49.627Z,72.02
2019-03-01T13:31:53.048Z,71.96
2019-03-01T13:32:58.904Z,71.33
2019-03-01T13:34:01.865Z,71.33
2019-03-01T13:35:10.753Z,71.62
2019-03-01T13:36:13.601Z,71.79
2019-03-01T13:37:20.132Z,71.76
2019-03-01T13:38:22.241Z,71.25
2019-03-01T13:39:25.669Z,71.25
2019-03-01T13:40:29.188Z,70.90
2019-03-01T13:41:33.965Z,70.92
2019-03-01T13:42:38.123Z,70.55
2019-03-01T13:43:41.508Z,70.47
2019-03-01T13:44:44.939Z,70.54
2019-03-01T13:45:52.607Z,70.54
2019-03-01T13:46:53.547Z,70.08
2019-03-01T13:47:57.049Z,69.73
2019-03-01T13:49:00.478Z,69.73
2019-03-01T13:50:06.776Z,70.01
2019-03-01T13:51:10.252Z,70.01
2019-03-01T13:52:14.858Z,69.95
2019-03-01T13:53:18.314Z,70.08
2019-03-01T13:54:21.730Z,70.36
2019-03-01T13:55:25.248Z,71.23
2019-03-01T13:56:28.714Z,71.63
2019-03-01T13:57:32.254Z,71.72
2019-03-01T13:58:35.825Z,71.73